createdAt,value
2019-05-11T00:02:19.717Z,96148.62
2019-05-11T00:04:50.367Z,96145.25
2019-05-11T00:07:22.830Z,96133.20
2019-05-11T00:09:58.038Z,96135.48
2019-05-11T00:12:25.416Z,96136.43
2019-05-11T00:14:56.231Z,96135.36
2019-05-11T00:17:29.559Z,96125.11
2019-05-11T00:19:59.979Z,96124.73
2019-05-11T00:22:30.429Z,96125.73
2019-05-11T00:25:00.980Z,96126.97
2019-05-11T00:27:31.575Z,96120.05
2019-05-11T00:30:02.040Z,96123.61
2019-05-11T00:32:36.038Z,96119.63
2019-05-11T00:35:07.165Z,96123.87
2019-05-11T00:37:40.160Z,96114.98
2019-05-11T00:40:14.864Z,96102.50
2019-05-11T00:42:43.528Z,96095.27
2019-05-11T00:45:14.633Z,96096.88
2019-05-11T00:47:45.076Z,96093.86
2019-05-11T00:50:15.796Z,96095.48
2019-05-11T00:52:46.500Z,96090.87
2019-05-11T00:55:16.947Z,96083.23
2019-05-11T00:57:47.472Z,96071.74
2019-05-11T01:00:18.588Z,96070.74
2019-05-11T01:02:49.484Z,96070.03
2019-05-11T01:05:22.923Z,96076.21
2019-05-11T01:07:56.048Z,96084.08
2019-05-11T01:10:41.218Z,96095.19
2019-05-11T01:12:58.883Z,96081.05
2019-05-11T01:15:31.203Z,96056.45
2019-05-11T01:18:01.746Z,96058.08
2019-05-11T01:20:32.381Z,96055.86
2019-05-11T01:23:02.932Z,96053.23
2019-05-11T01:25:33.429Z,96053.42
2019-05-11T01:28:04.215Z,96054.23
2019-05-11T01:30:34.914Z,96052.92
2019-05-11T01:33:05.491Z,96044.74
2019-05-11T01:35:35.815Z,96042.12
2019-05-11T01:38:07.068Z,96045.12
2019-05-11T01:40:37.497Z,96040.69
2019-05-11T01:43:07.873Z,96034.94
2019-05-11T01:45:38.298Z,96036.94
2019-05-11T01:48:08.659Z,96052.98
2019-05-11T01:50:39.051Z,96057.83
2019-05-11T01:53:09.475Z,96055.89
2019-05-11T01:55:39.820Z,96057.91
2019-05-11T01:58:10.272Z,96058.10
2019-05-11T02:00:40.707Z,96062.63
2019-05-11T02:03:11.151Z,96057.02
2019-05-11T02:05:41.480Z,96052.58
2019-05-11T02:08:11.923Z,96031.42
2019-05-11T02:10:42.355Z,96018.31
2019-05-11T02:13:12.896Z,96022.30
2019-05-11T02:15:43.329Z,96029.58
2019-05-11T02:18:13.800Z,96028.55
2019-05-11T02:20:44.293Z,96024.02
2019-05-11T02:23:14.862Z,96028.55
2019-05-11T02:25:45.260Z,96016.25
2019-05-11T02:28:15.689Z,96006.20
2019-05-11T02:30:46.121Z,96004.58
2019-05-11T02:33:16.580Z,96003.27
2019-05-11T02:35:46.994Z,96002.14
2019-05-11T02:38:18.334Z,96003.95
2019-05-11T02:40:48.824Z,96001.95
2019-05-11T02:43:19.226Z,95995.41
2019-05-11T02:45:49.936Z,95993.50
2019-05-11T02:48:20.423Z,95988.06
2019-05-11T02:50:51.610Z,95987.85
2019-05-11T02:53:23.323Z,95984.23
2019-05-11T02:55:53.910Z,95992.37
2019-05-11T02:58:24.320Z,95992.87
2019-05-11T03:00:54.730Z,95999.81
2019-05-11T03:03:25.236Z,95991.73
2019-05-11T03:05:55.755Z,95995.84
2019-05-11T03:08:26.296Z,95994.72
2019-05-11T03:10:56.745Z,95989.42
2019-05-11T03:13:27.110Z,95989.42
2019-05-11T03:15:57.503Z,95983.77
2019-05-11T03:18:27.964Z,95978.73
2019-05-11T03:20:58.343Z,95967.88
2019-05-11T03:23:28.726Z,95960.63
2019-05-11T03:25:59.188Z,95949.73
2019-05-11T03:28:29.656Z,95937.63
2019-05-11T03:31:00.048Z,95930.57
2019-05-11T03:33:30.508Z,95938.94
2019-05-11T03:36:00.877Z,95936.25
2019-05-11T03:38:31.312Z,95933.81
2019-05-11T03:41:01.709Z,95928.38
2019-05-11T03:43:32.136Z,95929.38
2019-05-11T03:46:02.623Z,95932.00
2019-05-11T03:48:33.074Z,95935.94
2019-05-11T03:51:03.584Z,95928.07
2019-05-11T03:53:34.143Z,95932.63
2019-05-11T03:56:04.531Z,95923.72
2019-05-11T03:58:34.879Z,95913.86
2019-05-11T04:01:05.264Z,95899.23
2019-05-11T04:03:35.575Z,95905.47
2019-05-11T04:06:06.061Z,95917.17
2019-05-11T04:08:36.625Z,95909.02
2019-05-11T04:11:07.046Z,95899.84
2019-05-11T04:13:37.520Z,95911.03
2019-05-11T04:16:07.950Z,95910.34
2019-05-11T04:18:38.408Z,95927.47
2019-05-11T04:21:08.883Z,95942.31
2019-05-11T04:23:39.233Z,95946.15
2019-05-11T04:26:10.572Z,95942.83
2019-05-11T04:28:41.101Z,95932.84
2019-05-11T04:31:11.406Z,95927.59
2019-05-11T04:33:41.900Z,95927.97
2019-05-11T04:36:12.338Z,95917.89
2019-05-11T04:38:42.814Z,95917.89
2019-05-11T04:41:13.265Z,95912.65
2019-05-11T04:43:43.672Z,95919.89
2019-05-11T04:46:14.200Z,95937.63
2019-05-11T04:48:44.697Z,95941.16
2019-05-11T04:51:15.164Z,95944.66
2019-05-11T04:53:47.429Z,95953.14
2019-05-11T04:56:17.889Z,95963.44
2019-05-11T04:58:48.360Z,95947.52
2019-05-11T05:01:18.878Z,95951.45
2019-05-11T05:03:53.870Z,95945.28
2019-05-11T05:06:23.947Z,95954.45
2019-05-11T05:08:58.243Z,95954.14
2019-05-11T05:11:30.499Z,95963.63
2019-05-11T05:14:01.908Z,95966.69
2019-05-11T05:16:31.444Z,95981.61
2019-05-11T05:19:02.193Z,95961.22
2019-05-11T05:21:32.638Z,95970.52
2019-05-11T05:24:03.073Z,95980.41
2019-05-11T05:26:33.564Z,95981.65
2019-05-11T05:29:03.994Z,95989.52
2019-05-11T05:31:34.498Z,95985.05
2019-05-11T05:34:05.021Z,96000.29
2019-05-11T05:36:35.432Z,96003.94
2019-05-11T05:39:09.303Z,96011.80
2019-05-11T05:41:40.037Z,96011.88
2019-05-11T05:44:10.564Z,96017.84
2019-05-11T05:46:40.997Z,96003.67
2019-05-11T05:49:11.440Z,95993.41
2019-05-11T05:51:41.827Z,95991.78
2019-05-11T05:54:12.282Z,95991.66
2019-05-11T05:56:42.801Z,95998.12
2019-05-11T05:59:13.229Z,95980.14
2019-05-11T06:01:43.687Z,95993.04
2019-05-11T06:04:14.176Z,96003.34
2019-05-11T06:06:44.535Z,96009.80
2019-05-11T06:09:14.982Z,96015.75
2019-05-11T06:11:45.507Z,96021.74
2019-05-11T06:14:15.949Z,96004.79
2019-05-11T06:16:47.497Z,95995.92
2019-05-11T06:19:17.959Z,96008.23
2019-05-11T06:21:48.350Z,95998.17
2019-05-11T06:24:18.887Z,95993.14
2019-05-11T06:26:49.310Z,95978.00
2019-05-11T06:29:21.754Z,95968.23
2019-05-11T06:31:52.063Z,95942.59
2019-05-11T06:34:22.561Z,95923.55
2019-05-11T06:36:52.963Z,95910.07
2019-05-11T06:39:23.397Z,95934.27
2019-05-11T06:41:53.890Z,95926.32
2019-05-11T06:44:24.388Z,95911.59
2019-05-11T06:46:54.858Z,95920.58
2019-05-11T06:49:25.223Z,95919.36
2019-05-11T06:51:55.628Z,95943.90
2019-05-11T06:54:26.023Z,95979.09
2019-05-11T06:56:56.395Z,95986.78
2019-05-11T06:59:26.725Z,95991.41
2019-05-11T07:01:57.176Z,95987.20
2019-05-11T07:04:30.048Z,95997.88
2019-05-11T07:07:00.489Z,96003.44
2019-05-11T07:09:31.049Z,96009.39
2019-05-11T07:12:01.590Z,96016.95
2019-05-11T07:14:32.054Z,96019.70
2019-05-11T07:17:02.587Z,96013.95
2019-05-11T07:19:33.109Z,96022.72
2019-05-11T07:22:03.545Z,96014.95
2019-05-11T07:24:34.020Z,95993.03
2019-05-11T07:27:04.686Z,95980.22
2019-05-11T07:29:35.151Z,95973.27
2019-05-11T07:32:16.598Z,95979.11
2019-05-11T07:34:38.443Z,95974.09
2019-05-11T07:37:08.968Z,95949.73
2019-05-11T07:39:39.395Z,95941.67
2019-05-11T07:42:09.803Z,95942.16
2019-05-11T07:44:41.828Z,95939.09
2019-05-11T07:47:12.516Z,95938.70
2019-05-11T07:49:42.868Z,95938.03
2019-05-11T07:52:13.292Z,95940.56
2019-05-11T07:54:43.843Z,95948.39
2019-05-11T07:57:14.351Z,95935.25
2019-05-11T07:59:44.811Z,95931.33
2019-05-11T08:02:15.103Z,95929.78
2019-05-11T08:04:48.103Z,95931.25
2019-05-11T08:07:18.289Z,95942.13
2019-05-11T08:09:48.698Z,95951.20
2019-05-11T08:12:19.329Z,95952.91
2019-05-11T08:15:00.881Z,95948.45
2019-05-11T08:17:21.977Z,95943.75
2019-05-11T08:19:52.464Z,95946.08
2019-05-11T08:22:23.133Z,95945.03
2019-05-11T08:24:53.633Z,95947.44
2019-05-11T08:27:24.030Z,95958.55
2019-05-11T08:29:54.481Z,95948.67
2019-05-11T08:32:24.901Z,95943.55
2019-05-11T08:34:55.475Z,95946.09
2019-05-11T08:37:28.419Z,95948.95
2019-05-11T08:39:58.695Z,95939.85
2019-05-11T08:42:29.190Z,95940.16
2019-05-11T08:45:15.337Z,95947.25
2019-05-11T08:47:31.783Z,95948.06
2019-05-11T08:50:02.340Z,95950.05
2019-05-11T08:52:32.685Z,95949.74
2019-05-11T08:55:03.180Z,95945.64
2019-05-11T08:57:33.734Z,95941.27
2019-05-11T09:00:04.455Z,95946.47
2019-05-11T09:02:34.963Z,95941.59
2019-05-11T09:05:07.959Z,95943.30
2019-05-11T09:07:38.399Z,95952.78
2019-05-11T09:10:09.118Z,95956.38
2019-05-11T09:12:39.575Z,95943.47
2019-05-11T09:15:12.817Z,95940.02
2019-05-11T09:17:42.911Z,95944.27
2019-05-11T09:20:14.544Z,95948.48
2019-05-11T09:22:44.961Z,95954.94
2019-05-11T09:25:15.363Z,95952.42
2019-05-11T09:27:47.591Z,95953.34
2019-05-11T09:30:18.531Z,95950.04
2019-05-11T09:32:49.301Z,95948.34
2019-05-11T09:35:19.770Z,95946.47
2019-05-11T09:37:50.165Z,95954.81
2019-05-11T09:40:20.495Z,95965.97
2019-05-11T09:42:50.897Z,95966.67
2019-05-11T09:45:21.365Z,95963.81
2019-05-11T09:47:51.836Z,95972.50
2019-05-11T09:50:22.146Z,95969.55
2019-05-11T09:52:52.542Z,95973.10
2019-05-11T09:55:23.032Z,95967.73
2019-05-11T09:57:53.483Z,95970.07
2019-05-11T10:00:24.121Z,95961.19
2019-05-11T10:02:54.571Z,95961.95
2019-05-11T10:05:24.993Z,95963.73
2019-05-11T10:07:55.382Z,95965.72
2019-05-11T10:10:25.800Z,95975.09
2019-05-11T10:12:56.258Z,95979.86
2019-05-11T10:15:27.895Z,95978.57
2019-05-11T10:17:59.028Z,95977.09
2019-05-11T10:20:29.563Z,95973.82
2019-05-11T10:23:00.024Z,95965.59
2019-05-11T10:25:30.450Z,95978.08
2019-05-11T10:28:00.825Z,95987.19
2019-05-11T10:30:31.255Z,95984.55
2019-05-11T10:33:01.626Z,95991.75
2019-05-11T10:35:32.037Z,96002.49
2019-05-11T10:38:02.440Z,95995.87
2019-05-11T10:40:32.863Z,95999.13
2019-05-11T10:43:03.275Z,95991.16
2019-05-11T10:45:33.650Z,95988.44
2019-05-11T10:50:48.391Z,95979.73
2019-05-11T10:53:18.473Z,95973.42
2019-05-11T10:55:49.197Z,95963.54
2019-05-11T10:58:19.572Z,95965.23
2019-05-11T11:00:50.001Z,95961.43
2019-05-11T11:03:20.287Z,95947.94
2019-05-11T11:05:50.756Z,95947.07
2019-05-11T11:08:21.338Z,95941.62
2019-05-11T11:10:51.752Z,95951.96
2019-05-11T11:13:22.327Z,95954.53
2019-05-11T11:15:52.763Z,95955.13
2019-05-11T11:18:23.278Z,95963.53
2019-05-11T11:20:53.554Z,95960.23
2019-05-11T11:23:24.011Z,95948.23
2019-05-11T11:25:54.565Z,95950.94
2019-05-11T11:28:24.878Z,95941.09
2019-05-11T11:30:55.237Z,95945.61
2019-05-11T11:33:27.561Z,95954.59
2019-05-11T11:35:58.075Z,95958.05
2019-05-11T11:38:28.809Z,95961.39
2019-05-11T11:40:59.283Z,95956.88
2019-05-11T11:43:29.650Z,95938.56
2019-05-11T11:46:00.087Z,95942.35
2019-05-11T11:51:14.957Z,95936.06
2019-05-11T11:59:04.168Z,95959.73
2019-05-11T12:01:34.529Z,95968.30
2019-05-11T12:04:04.911Z,95975.69
2019-05-11T12:06:35.338Z,95970.22
2019-05-11T12:09:11.250Z,95980.32
2019-05-11T12:11:41.924Z,95987.49
2019-05-11T12:14:12.346Z,95988.97
2019-05-11T12:16:42.833Z,95989.55
2019-05-11T12:19:13.390Z,95992.78
2019-05-11T12:21:43.857Z,95980.45
2019-05-11T12:24:14.325Z,95989.06
2019-05-11T12:26:45.033Z,95990.83
2019-05-11T12:29:18.863Z,96000.81
2019-05-11T12:31:49.001Z,95998.34
2019-05-11T12:34:21.157Z,95999.56
2019-05-11T12:37:01.861Z,96010.94
2019-05-11T12:39:34.933Z,95991.32
2019-05-11T12:42:11.714Z,95979.61
2019-05-11T12:44:58.148Z,95987.37
2019-05-11T12:47:29.085Z,95993.09
2019-05-11T12:50:04.322Z,95972.77
2019-05-11T12:52:59.390Z,95975.59
2019-05-11T12:55:32.232Z,95978.16
2019-05-11T12:58:05.684Z,95962.13
2019-05-11T13:00:39.116Z,95964.21
2019-05-11T13:03:10.163Z,95955.13
2019-05-11T13:05:42.381Z,95953.07
2019-05-11T13:08:36.305Z,95946.99
2019-05-11T13:11:12.113Z,95936.05
2019-05-11T13:13:55.053Z,95932.39
2019-05-11T13:16:39.387Z,95932.83
2019-05-11T13:19:11.042Z,95943.84
2019-05-11T13:22:00.599Z,95941.25
2019-05-11T13:24:31.028Z,95949.12
2019-05-11T13:27:01.649Z,95940.66
2019-05-11T13:29:32.106Z,95933.42
2019-05-11T13:32:02.579Z,95938.91
2019-05-11T13:34:33.256Z,95948.97
2019-05-11T13:37:03.901Z,95981.55
2019-05-11T13:39:34.605Z,96003.02
2019-05-11T13:42:05.195Z,96031.28
2019-05-11T13:44:35.662Z,96032.45
2019-05-11T13:47:08.431Z,96041.28
2019-05-11T13:49:38.358Z,96041.07
2019-05-11T13:52:09.097Z,96052.48
2019-05-11T13:54:39.711Z,96047.92
2019-05-11T13:57:10.359Z,96052.98
2019-05-11T13:59:40.714Z,96059.99
2019-05-11T14:02:11.302Z,96051.00
2019-05-11T14:04:41.710Z,96047.67
2019-05-11T14:07:12.175Z,96050.64
2019-05-11T14:09:42.584Z,96067.88
2019-05-11T14:12:13.038Z,96059.47
2019-05-11T14:14:43.438Z,96060.63
2019-05-11T14:17:13.908Z,96069.59
2019-05-11T14:19:44.415Z,96053.92
2019-05-11T14:22:15.100Z,96047.03
2019-05-11T14:24:47.619Z,96058.52
2019-05-11T14:27:18.031Z,96058.72
2019-05-11T14:29:48.800Z,96050.01
2019-05-11T14:32:19.216Z,96060.03
2019-05-11T14:34:49.762Z,96060.75
2019-05-11T14:37:20.951Z,96063.82
2019-05-11T14:39:51.426Z,96074.77
2019-05-11T14:42:22.472Z,96086.38
2019-05-11T14:44:52.949Z,96092.19
2019-05-11T14:47:23.479Z,96073.75
2019-05-11T14:49:53.873Z,96070.41
2019-05-11T14:52:24.367Z,96096.17
2019-05-11T14:54:54.796Z,96087.15
2019-05-11T14:57:27.742Z,96077.95
2019-05-11T14:59:58.629Z,96086.98
2019-05-11T15:02:49.304Z,96085.98
2019-05-11T15:05:20.830Z,96089.80
2019-05-11T15:07:52.811Z,96099.32
2019-05-11T15:10:24.500Z,96089.43
2019-05-11T15:12:54.968Z,96096.98
2019-05-11T15:15:27.751Z,96103.16
2019-05-11T15:17:58.418Z,96111.34
2019-05-11T15:20:29.338Z,96111.44
2019-05-11T15:22:59.735Z,96119.39
2019-05-11T15:25:30.127Z,96127.91
2019-05-11T15:28:00.514Z,96131.09
2019-05-11T15:30:30.958Z,96126.67
2019-05-11T15:33:01.274Z,96123.13
2019-05-11T15:35:31.698Z,96123.37
2019-05-11T15:38:02.134Z,96127.63
2019-05-11T15:40:32.572Z,96130.57
2019-05-11T15:43:02.992Z,96128.48
2019-05-11T15:45:33.404Z,96132.56
2019-05-11T15:48:03.876Z,96134.59
2019-05-11T15:50:34.373Z,96133.41
2019-05-11T15:53:04.704Z,96124.46
2019-05-11T15:55:35.208Z,96127.70
2019-05-11T15:58:05.741Z,96145.27
2019-05-11T16:00:39.694Z,96131.92
2019-05-11T16:03:08.509Z,96133.11
2019-05-11T16:05:38.901Z,96129.56
2019-05-11T16:08:09.348Z,96135.53
2019-05-11T16:10:39.674Z,96135.45
2019-05-11T16:13:10.069Z,96142.09
2019-05-11T16:15:40.600Z,96147.53
2019-05-11T16:18:11.006Z,96150.94
2019-05-11T16:20:41.457Z,96146.84
2019-05-11T16:23:11.930Z,96146.44
2019-05-11T16:25:42.436Z,96156.77
2019-05-11T16:28:12.892Z,96151.95
2019-05-11T16:30:43.278Z,96157.94
2019-05-11T16:33:13.672Z,96170.68
2019-05-11T16:35:44.131Z,96174.32
2019-05-11T16:38:14.586Z,96188.22
2019-05-11T16:40:45.028Z,96197.13
2019-05-11T16:43:15.510Z,96200.83
2019-05-11T16:45:46.006Z,96211.48
2019-05-11T16:48:18.439Z,96210.33
2019-05-11T16:50:48.563Z,96211.58
2019-05-11T16:53:19.047Z,96215.20
2019-05-11T16:55:49.473Z,96216.74
2019-05-11T16:58:20.209Z,96225.79
2019-05-11T17:00:50.623Z,96241.83
2019-05-11T17:03:21.091Z,96252.00
2019-05-11T17:05:51.547Z,96250.20
2019-05-11T17:08:21.979Z,96258.89
2019-05-11T17:10:59.575Z,96254.85
2019-05-11T17:13:30.115Z,96253.96
2019-05-11T17:16:00.749Z,96278.78
2019-05-11T17:18:31.297Z,96280.61
2019-05-11T17:21:01.693Z,96273.52
2019-05-11T17:23:32.172Z,96275.23
2019-05-11T17:26:02.672Z,96273.81
2019-05-11T17:28:33.019Z,96276.16
2019-05-11T17:31:03.429Z,96273.53
2019-05-11T17:33:33.847Z,96276.98
2019-05-11T17:36:04.331Z,96281.81
2019-05-11T17:38:34.621Z,96300.05
2019-05-11T17:41:05.005Z,96314.32
2019-05-11T17:43:35.351Z,96323.83
2019-05-11T17:46:07.857Z,96325.41
2019-05-11T17:48:38.803Z,96320.65
2019-05-11T17:51:20.667Z,96335.98
2019-05-11T17:53:41.533Z,96339.00
2019-05-11T17:56:11.982Z,96349.55
2019-05-11T17:58:42.426Z,96362.39
2019-05-11T18:01:13.758Z,96365.73
2019-05-11T18:03:44.109Z,96375.41
2019-05-11T18:06:14.502Z,96370.69
2019-05-11T18:08:44.990Z,96376.84
2019-05-11T18:11:15.407Z,96374.38
2019-05-11T18:13:48.081Z,96381.53
2019-05-11T18:16:18.766Z,96383.77
2019-05-11T18:18:49.433Z,96376.47
2019-05-11T18:21:19.866Z,96378.88
2019-05-11T18:23:50.308Z,96385.58
2019-05-11T18:26:20.743Z,96387.66
2019-05-11T18:28:51.147Z,96391.28
2019-05-11T18:31:21.477Z,96392.59
2019-05-11T18:33:51.931Z,96390.97
2019-05-11T18:36:22.347Z,96392.28
2019-05-11T18:38:52.798Z,96394.85
2019-05-11T18:41:23.286Z,96398.48
2019-05-11T18:43:53.657Z,96404.23
2019-05-11T18:46:24.084Z,96404.49
2019-05-11T18:48:54.525Z,96407.61
2019-05-11T18:51:24.960Z,96403.94
2019-05-11T18:53:55.347Z,96400.45
2019-05-11T18:56:25.758Z,96413.66
2019-05-11T18:58:58.236Z,96418.59
2019-05-11T19:01:28.630Z,96419.58
2019-05-11T19:04:00.127Z,96414.45
2019-05-11T19:06:30.638Z,96414.84
2019-05-11T19:09:01.068Z,96416.20
2019-05-11T19:11:31.619Z,96414.22
2019-05-11T19:14:02.087Z,96414.40
2019-05-11T19:16:32.609Z,96410.36
2019-05-11T19:19:03.055Z,96401.28
2019-05-11T19:21:33.543Z,96405.39
2019-05-11T19:24:06.036Z,96412.98
2019-05-11T19:26:36.124Z,96411.53
2019-05-11T19:29:08.959Z,96416.72
2019-05-11T19:31:38.865Z,96416.72
2019-05-11T19:34:09.417Z,96420.34
2019-05-11T19:36:42.827Z,96419.41
2019-05-11T19:39:13.207Z,96425.66
2019-05-11T19:41:43.709Z,96423.34
2019-05-11T19:44:14.154Z,96426.02
2019-05-11T19:46:44.603Z,96439.27
2019-05-11T19:49:14.906Z,96436.82
2019-05-11T19:51:45.463Z,96434.83
2019-05-11T19:54:15.887Z,96435.22
2019-05-11T19:56:46.281Z,96444.70
2019-05-11T19:59:16.697Z,96442.40
2019-05-11T20:01:47.082Z,96446.66
2019-05-11T20:04:18.771Z,96452.40
2019-05-11T20:06:49.413Z,96449.87
2019-05-11T20:09:19.723Z,96455.08
2019-05-11T20:11:50.164Z,96453.38
2019-05-11T20:14:20.503Z,96449.52
2019-05-11T20:16:51.066Z,96447.50
2019-05-11T20:19:21.422Z,96447.08
2019-05-11T20:21:51.950Z,96451.83
2019-05-11T20:24:25.088Z,96443.82
2019-05-11T20:26:54.655Z,96439.33
2019-05-11T20:29:25.091Z,96442.20
2019-05-11T20:31:57.727Z,96437.70
2019-05-11T20:34:28.864Z,96436.82
2019-05-11T20:36:59.548Z,96435.77
2019-05-11T20:39:30.027Z,96438.62
2019-05-11T20:42:00.578Z,96442.56
2019-05-11T20:44:30.967Z,96444.87
2019-05-11T20:47:01.444Z,96464.81
2019-05-11T20:49:31.838Z,96461.77
2019-05-11T20:52:02.292Z,96462.50
2019-05-11T20:54:32.611Z,96465.77
2019-05-11T20:57:03.107Z,96460.45
2019-05-11T20:59:33.588Z,96469.63
2019-05-11T21:02:04.022Z,96468.70
2019-05-11T21:04:34.482Z,96472.58
2019-05-11T21:07:04.856Z,96480.94
2019-05-11T21:09:35.354Z,96487.31
2019-05-11T21:12:07.986Z,96486.11
2019-05-11T21:14:38.590Z,96485.62
2019-05-11T21:17:09.155Z,96488.24
2019-05-11T21:19:42.672Z,96488.95
2019-05-11T21:22:12.204Z,96493.88
2019-05-11T21:24:42.558Z,96494.92
2019-05-11T21:27:13.011Z,96499.59
2019-05-11T21:29:43.501Z,96501.75
2019-05-11T21:32:13.913Z,96509.35
2019-05-11T21:34:44.428Z,96513.40
2019-05-11T21:37:14.858Z,96514.48
2019-05-11T21:39:45.312Z,96529.88
2019-05-11T21:42:18.022Z,96535.45
2019-05-11T21:44:47.911Z,96539.05
2019-05-11T21:47:18.495Z,96537.30
2019-05-11T21:49:49.116Z,96545.34
2019-05-11T21:52:19.576Z,96545.37
2019-05-11T21:54:50.084Z,96541.14
2019-05-11T21:57:20.481Z,96551.62
2019-05-11T21:59:51.060Z,96552.47
2019-05-11T22:02:21.662Z,96552.14
2019-05-11T22:04:52.122Z,96560.16
2019-05-11T22:07:23.287Z,96558.84
2019-05-11T22:09:53.961Z,96556.22
2019-05-11T22:12:24.592Z,96559.19
2019-05-11T22:14:55.061Z,96556.30
2019-05-11T22:17:25.450Z,96558.92
2019-05-11T22:19:58.380Z,96559.88
2019-05-11T22:22:28.680Z,96560.55
2019-05-11T22:24:59.286Z,96556.94
2019-05-11T22:27:29.611Z,96551.70
2019-05-11T22:30:00.033Z,96556.69
2019-05-11T22:32:30.460Z,96556.34
2019-05-11T22:35:00.959Z,96557.51
2019-05-11T22:37:31.456Z,96561.59
2019-05-11T22:40:01.890Z,96566.19
2019-05-11T22:42:32.314Z,96559.63
2019-05-11T22:45:02.766Z,96562.90
2019-05-11T22:47:33.209Z,96564.16
2019-05-11T22:50:03.689Z,96565.84
2019-05-11T22:52:36.682Z,96571.09
2019-05-11T22:55:08.990Z,96567.87
2019-05-11T22:57:38.738Z,96572.56
2019-05-11T23:00:10.494Z,96571.75
2019-05-11T23:02:40.959Z,96572.41
2019-05-11T23:05:11.462Z,96573.38
2019-05-11T23:07:41.889Z,96568.78
2019-05-11T23:10:12.469Z,96575.67
2019-05-11T23:12:42.824Z,96577.63
2019-05-11T23:15:13.717Z,96571.75
2019-05-11T23:17:44.234Z,96578.62
2019-05-11T23:20:16.412Z,96573.05
2019-05-11T23:22:56.826Z,96578.25
2019-05-11T23:25:20.649Z,96578.57
2019-05-11T23:27:51.057Z,96577.91
2019-05-11T23:30:21.872Z,96580.25
2019-05-11T23:32:52.321Z,96578.80
2019-05-11T23:35:22.754Z,96580.64
2019-05-11T23:37:53.180Z,96568.38
2019-05-11T23:40:23.764Z,96570.87
2019-05-11T23:42:54.157Z,96571.87
2019-05-11T23:45:24.548Z,96565.66
2019-05-11T23:47:55.018Z,96557.19
2019-05-11T23:50:27.877Z,96557.19
2019-05-11T23:53:06.119Z,96558.34
2019-05-11T23:55:29.547Z,96550.33
2019-05-11T23:58:00.019Z,96551.13
